Time;durP1;ratioP1;P1;durP2;ratioP2;P2;SDS_P1;SDS_P2;PMS_P1;PMS_P2;Temp;Humidity;BMP_temperature;BMP_pressure;BME280_temperature;BME280_humidity;BME280_pressure;Samples;Min_cycle;Max_cycle;Signal;HPM_P1;HPM_P2
2023/05/25 00:00:17;;;;;;;13.50;12.20;;;;;;;12.23;100.00;96644.19;5010653;28;102336;-60
2023/05/25 00:02:45;;;;;;;12.87;11.57;;;;;;;12.20;100.00;96650.81;5009865;28;102687;-60
2023/05/25 00:05:19;;;;;;;12.67;11.37;;;;;;;12.24;100.00;96640.44;5009151;28;101840;-60
2023/05/25 00:07:46;;;;;;;13.13;11.30;;;;;;;12.26;100.00;96638.34;5010441;28;102430;-60
2023/05/25 00:10:13;;;;;;;12.67;11.37;;;;;;;12.21;100.00;96636.44;5008368;28;103897;-60
2023/05/25 00:12:42;;;;;;;14.27;12.87;;;;;;;12.25;100.00;96636.72;5013991;28;101867;-60
2023/05/25 00:15:44;;;;;;;14.07;12.47;;;;;;;12.28;100.00;96630.88;5009518;28;103356;-60
2023/05/25 00:18:11;;;;;;;13.90;12.50;;;;;;;12.25;100.00;96636.72;5010307;28;101923;-60
2023/05/25 00:20:39;;;;;;;13.23;11.83;;;;;;;12.25;100.00;96632.19;5008723;28;105059;-60
2023/05/25 00:23:06;;;;;;;14.00;12.60;;;;;;;12.25;100.00;96637.53;5008369;28;105960;-60
2023/05/25 00:25:32;;;;;;;16.13;14.43;;;;;;;12.23;100.00;96634.31;5010241;28;101894;-60
2023/05/25 00:28:03;;;;;;;17.07;15.27;;;;;;;12.17;100.00;96635.34;5008353;28;105263;-60
2023/05/25 00:30:30;;;;;;;16.80;13.77;;;;;;;12.18;100.00;96638.81;5009726;28;101925;-60
2023/05/25 00:33:00;;;;;;;16.13;14.43;;;;;;;12.20;100.00;96632.16;5008641;28;101871;-60
2023/05/25 00:35:37;;;;;;;19.27;15.13;;;;;;;12.20;100.00;96629.50;5012546;28;102477;-60
2023/05/25 00:38:04;;;;;;;16.80;15.00;;;;;;;12.19;100.00;96629.72;5005448;28;102073;-60
2023/05/25 00:40:31;;;;;;;16.20;14.50;;;;;;;12.22;100.00;96632.69;5002084;28;105189;-60
2023/05/25 00:43:01;;;;;;;16.50;14.53;;;;;;;12.23;100.00;96639.66;4988165;28;105711;-60
2023/05/25 00:45:47;;;;;;;17.33;15.07;;;;;;;12.24;100.00;96640.44;5001983;28;101806;-60
2023/05/25 00:48:17;;;;;;;16.07;14.47;;;;;;;12.25;100.00;96636.72;4999909;28;104885;-60
2023/05/25 00:50:44;;;;;;;18.20;14.90;;;;;;;12.27;100.00;96638.06;4998967;28;103106;-60
2023/05/25 00:53:13;;;;;;;17.77;15.97;;;;;;;12.31;100.00;96635.72;5008198;28;102031;-60
2023/05/25 00:55:45;;;;;;;19.03;15.87;;;;;;;12.32;100.00;96632.00;5004338;28;105045;-60
2023/05/25 00:58:17;;;;;;;17.13;15.27;;;;;;;12.33;100.00;96629.06;5001190;28;101946;-60
2023/05/25 01:00:48;;;;;;;18.03;15.63;;;;;;;12.34;100.00;96636.00;4998846;28;102290;-60
2023/05/25 01:03:20;;;;;;;18.80;16.50;;;;;;;12.36;100.00;96633.06;5009291;28;102596;-60
2023/05/25 01:05:54;;;;;;;18.00;16.20;;;;;;;12.32;100.00;96621.31;5009740;28;101889;-60
2023/05/25 01:08:24;;;;;;;18.70;15.63;;;;;;;12.35;100.00;96626.94;5004831;28;105464;-60
2023/05/25 01:10:53;;;;;;;18.77;16.63;;;;;;;12.33;100.00;96633.59;4998991;28;102589;-60
2023/05/25 01:13:29;;;;;;;18.33;16.13;;;;;;;12.28;100.00;96622.88;5009236;28;101881;-60
2023/05/25 01:15:58;;;;;;;18.70;15.83;;;;;;;12.31;100.00;96617.06;5009241;28;102297;-60
2023/05/25 01:18:25;;;;;;;18.00;16.13;;;;;;;12.23;100.00;96623.66;5007565;28;105189;-60
2023/05/25 01:21:12;;;;;;;17.93;15.87;;;;;;;12.25;100.00;96628.72;4994736;28;104851;-60
2023/05/25 01:23:52;;;;;;;19.37;16.30;;;;;;;12.31;100.00;96628.50;4987732;28;104033;-60
2023/05/25 01:26:23;;;;;;;19.53;17.43;;;;;;;12.31;100.00;96635.72;4997747;28;102205;-60
2023/05/25 01:28:53;;;;;;;20.07;17.30;;;;;;;12.26;100.00;96639.13;5003718;28;102032;-60
2023/05/25 01:31:22;;;;;;;21.30;17.63;;;;;;;12.23;100.00;96633.50;5002156;28;102987;-60
2023/05/25 01:37:22;;;;;;;21.20;16.83;;;;;;;12.11;100.00;96625.66;5021393;28;105416;-60
2023/05/25 01:39:49;;;;;;;21.53;16.80;;;;;;;12.14;100.00;96627.03;4994822;28;105834;-60
2023/05/25 01:42:16;;;;;;;17.67;15.80;;;;;;;12.08;100.00;96628.84;4974831;28;102412;-60
2023/05/25 01:44:45;;;;;;;18.27;16.37;;;;;;;12.01;100.00;96628.28;4994161;28;105261;-60
2023/05/25 01:47:20;;;;;;;18.67;14.90;;;;;;;12.03;100.00;96636.00;4987851;28;102207;-60
2023/05/25 01:49:57;;;;;;;19.53;16.87;;;;;;;11.96;100.00;96627.41;4997695;28;104923;-60
2023/05/25 01:52:28;;;;;;;18.90;15.30;;;;;;;11.98;100.00;96627.94;4987358;28;105508;-60
2023/05/25 01:55:20;;;;;;;17.33;15.50;;;;;;;11.95;100.00;96621.25;5001556;28;101920;-60
2023/05/25 01:57:51;;;;;;;17.50;15.67;;;;;;;11.91;100.00;96622.03;5021122;28;105189;-60
2023/05/25 02:00:20;;;;;;;19.20;15.53;;;;;;;11.92;100.00;96632.44;5004227;28;105607;-60
2023/05/25 02:02:48;;;;;;;19.07;16.07;;;;;;;11.94;100.00;96634.88;5007518;28;101943;-60
2023/05/25 02:05:20;;;;;;;18.73;16.37;;;;;;;11.98;100.00;96635.94;5010397;28;104976;-60
2023/05/25 02:07:49;;;;;;;23.30;17.10;;;;;;;11.96;100.00;96630.06;5007265;28;101813;-60
2023/05/25 02:10:16;;;;;;;22.07;16.80;;;;;;;12.00;100.00;96628.53;5007408;28;105692;-60
2023/05/25 02:12:43;;;;;;;18.60;16.60;;;;;;;12.01;100.00;96622.13;5006740;28;105854;-60
2023/05/25 02:15:11;;;;;;;20.67;17.77;;;;;;;12.05;100.00;96620.56;5007379;28;102063;-60
2023/05/25 02:17:38;;;;;;;20.00;17.53;;;;;;;12.07;100.00;96626.44;5007212;28;105419;-60
2023/05/25 02:20:07;;;;;;;19.30;16.53;;;;;;;11.98;100.00;96612.78;5006796;28;105322;-60
2023/05/25 02:22:35;;;;;;;21.07;17.73;;;;;;;11.93;100.00;96618.06;4987074;28;101939;-60
2023/05/25 02:25:11;;;;;;;20.00;17.17;;;;;;;11.97;100.00;96618.34;4987308;28;105333;-60
2023/05/25 02:27:38;;;;;;;18.83;16.80;;;;;;;11.98;100.00;96618.09;4996632;28;105732;-60
2023/05/25 02:30:07;;;;;;;23.90;16.57;;;;;;;12.01;100.00;96628.28;4990702;28;104875;-60
2023/05/25 02:32:34;;;;;;;20.27;18.10;;;;;;;12.02;100.00;96632.53;4999656;28;105539;-60
2023/05/25 02:35:17;;;;;;;21.53;17.53;;;;;;;12.03;100.00;96636.81;5010562;28;101983;-60
2023/05/25 02:37:44;;;;;;;20.13;17.07;;;;;;;12.02;100.00;96632.53;4990714;28;103513;-60
2023/05/25 02:40:14;;;;;;;22.43;17.17;;;;;;;12.04;100.00;96633.09;5011077;28;102596;-60
2023/05/25 02:42:41;;;;;;;21.83;18.73;;;;;;;12.00;100.00;96639.97;5011577;28;102093;-60
2023/05/25 02:45:37;;;;;;;20.30;17.53;;;;;;;12.05;100.00;96632.03;5011957;28;102667;-60
2023/05/25 02:48:05;;;;;;;21.13;17.83;;;;;;;12.07;100.00;96634.44;5009214;28;105464;-60
2023/05/25 02:50:33;;;;;;;19.17;17.13;;;;;;;12.07;100.00;96637.09;5013948;28;101967;-60
2023/05/25 02:53:05;;;;;;;21.33;18.47;;;;;;;12.04;100.00;96638.41;5042801;27;105219;-60
2023/05/25 02:55:33;;;;;;;22.03;17.97;;;;;;;12.10;100.00;96645.41;5010077;28;102088;-60
2023/05/25 02:58:00;;;;;;;20.40;17.60;;;;;;;12.13;100.00;96649.41;5009885;28;104766;-60
2023/05/25 03:00:45;;;;;;;20.77;18.17;;;;;;;12.16;100.00;96654.25;5008274;28;102221;-60
2023/05/25 03:03:17;;;;;;;21.90;18.80;;;;;;;12.16;100.00;96646.25;5010040;28;102008;-60
2023/05/25 03:05:44;;;;;;;22.00;18.53;;;;;;;12.14;100.00;96643.03;5010224;28;105369;-60
2023/05/25 03:08:11;;;;;;;23.17;18.70;;;;;;;12.13;100.00;96644.09;5007826;28;105434;-60
2023/05/25 03:10:40;;;;;;;23.03;18.40;;;;;;;12.05;100.00;96641.91;5013446;28;101945;-60
2023/05/25 03:13:08;;;;;;;28.03;19.27;;;;;;;12.04;100.00;96642.97;5005947;28;105432;-60
2023/05/25 03:15:35;;;;;;;21.20;18.50;;;;;;;11.99;100.00;96643.69;4990167;28;102014;-60
2023/05/25 03:18:05;;;;;;;27.70;19.03;;;;;;;11.99;100.00;96638.38;5007314;28;105158;-60
2023/05/25 03:20:36;;;;;;;25.40;19.03;;;;;;;11.94;100.00;96640.97;5005928;28;105087;-60
2023/05/25 03:23:03;;;;;;;21.90;18.47;;;;;;;11.93;100.00;96639.38;4989973;28;101856;-60
2023/05/25 03:25:30;;;;;;;24.03;18.07;;;;;;;11.95;100.00;96641.78;4990001;28;105148;-60
2023/05/25 03:28:00;;;;;;;25.00;18.40;;;;;;;11.93;100.00;96636.72;4989088;28;105405;-60
2023/05/25 03:30:28;;;;;;;24.07;18.33;;;;;;;11.95;100.00;96634.59;5009616;28;101932;-60
2023/05/25 03:32:55;;;;;;;23.03;18.43;;;;;;;11.98;100.00;96638.59;5012629;28;105397;-60
2023/05/25 03:35:22;;;;;;;24.93;18.87;;;;;;;12.01;100.00;96638.13;5007710;28;102021;-60
2023/05/25 03:37:50;;;;;;;26.80;19.93;;;;;;;12.03;100.00;96644.00;5008793;28;105107;-60
2023/05/25 03:40:17;;;;;;;25.00;19.20;;;;;;;12.01;100.00;96638.13;5008082;28;105169;-60
2023/05/25 03:42:45;;;;;;;22.23;19.37;;;;;;;11.96;100.00;96641.56;5009616;28;101902;-60
2023/05/25 03:45:14;;;;;;;25.13;19.23;;;;;;;11.95;100.00;96633.81;5006185;28;105678;-60
2023/05/25 03:47:41;;;;;;;24.97;20.00;;;;;;;11.95;100.00;96641.78;4989152;28;105585;-60
2023/05/25 03:50:09;;;;;;;22.73;19.57;;;;;;;11.92;100.00;96636.97;5009119;28;101840;-60
2023/05/25 03:52:36;;;;;;;23.77;20.07;;;;;;;11.92;100.00;96647.63;5010678;28;102386;-60
2023/05/25 03:55:04;;;;;;;25.67;20.40;;;;;;;11.93;100.00;96641.25;5011834;28;105152;-60
2023/05/25 03:57:30;;;;;;;24.60;21.20;;;;;;;11.96;100.00;96641.56;5009177;28;104996;-60
2023/05/25 03:59:59;;;;;;;23.63;19.87;;;;;;;11.98;100.00;96646.59;5005121;28;105997;-60
2023/05/25 04:02:27;;;;;;;27.20;20.30;;;;;;;11.97;100.00;96639.66;5005513;28;101846;-60
2023/05/25 04:05:06;;;;;;;25.53;19.50;;;;;;;12.01;100.00;96643.44;5009357;28;105061;-60
2023/05/25 04:07:33;;;;;;;26.53;21.33;;;;;;;12.01;100.00;96646.13;5005281;28;105140;-60
2023/05/25 04:10:00;;;;;;;23.53;19.53;;;;;;;12.05;100.00;96642.69;5007186;28;102536;-60
2023/05/25 04:12:27;;;;;;;28.47;20.83;;;;;;;12.09;100.00;96645.63;5008890;28;105596;-60
2023/05/25 04:15:11;;;;;;;27.60;20.10;;;;;;;12.09;100.00;96648.31;5008509;28;105468;-60
2023/05/25 04:17:51;;;;;;;24.07;19.53;;;;;;;12.12;100.00;96643.28;5012225;28;102031;-60
2023/05/25 04:20:20;;;;;;;23.37;18.87;;;;;;;12.16;100.00;96643.59;4988446;28;105494;-60
2023/05/25 04:22:48;;;;;;;23.43;18.73;;;;;;;12.16;100.00;96643.59;5022589;28;101915;-60
2023/05/25 04:25:18;;;;;;;23.60;19.40;;;;;;;12.11;100.00;96643.53;5008448;28;104564;-60
2023/05/25 04:27:46;;;;;;;25.03;18.30;;;;;;;12.13;100.00;96644.09;5007943;28;104007;-60
2023/05/25 04:30:14;;;;;;;24.10;19.53;;;;;;;12.16;100.00;96649.72;5008091;28;102044;-60
2023/05/25 04:32:56;;;;;;;22.47;18.50;;;;;;;12.13;100.00;96644.09;5008727;28;105245;-60
2023/05/25 04:35:36;;;;;;;24.67;18.73;;;;;;;12.11;100.00;96644.34;5008015;28;105437;-60
2023/05/25 04:38:04;;;;;;;21.40;19.03;;;;;;;12.22;100.00;96651.34;5008359;28;101956;-60
2023/05/25 04:40:32;;;;;;;21.67;17.37;;;;;;;12.29;100.00;96653.81;5011380;28;104956;-60
2023/05/25 04:42:59;;;;;;;24.70;18.53;;;;;;;12.30;100.00;96653.56;5008701;28;101874;-60
2023/05/25 04:45:31;;;;;;;21.50;18.17;;;;;;;12.36;100.00;96655.22;5008615;28;104974;-60
2023/05/25 04:48:01;;;;;;;21.60;17.97;;;;;;;12.43;100.00;96665.69;5008101;28;105437;-60
2023/05/25 04:50:29;;;;;;;23.70;19.57;;;;;;;12.37;100.00;96659.50;5008032;28;101820;-60
2023/05/25 04:52:56;;;;;;;24.77;19.07;;;;;;;12.40;100.00;96653.66;5007874;28;105018;-59
2023/05/25 04:55:42;;;;;;;22.67;18.43;;;;;;;12.49;100.00;96664.66;5007706;28;105793;-59
2023/05/25 04:58:09;;;;;;;21.43;18.63;;;;;;;12.52;100.00;96659.63;5008422;28;101930;-59
2023/05/25 05:00:39;;;;;;;22.73;18.73;;;;;;;12.55;100.00;96667.13;5008221;28;105463;-59
2023/05/25 05:03:14;;;;;;;24.57;19.53;;;;;;;12.59;100.00;96664.75;5011165;28;105121;-59
2023/05/25 05:05:43;;;;;;;25.80;18.33;;;;;;;12.71;100.00;96668.03;5008311;28;105339;-59
2023/05/25 05:08:13;;;;;;;23.63;19.80;;;;;;;12.88;100.00;96663.34;5004205;28;104196;-59
2023/05/25 05:10:40;;;;;;;24.77;19.40;;;;;;;12.88;100.00;96664.16;4988306;28;102046;-59
2023/05/25 05:13:49;;;;;;;22.57;18.90;;;;;;;12.95;100.00;96674.56;4988004;28;105745;-60
2023/05/25 05:16:16;;;;;;;21.80;17.77;;;;;;;13.11;100.00;96669.09;4987632;28;105643;-59
2023/05/25 05:18:45;;;;;;;22.53;18.20;;;;;;;13.15;100.00;96664.88;4988080;28;101904;-59
2023/05/25 05:21:12;;;;;;;25.07;18.03;;;;;;;13.29;100.00;96665.16;4988123;28;104875;-60
2023/05/25 05:23:40;;;;;;;24.53;17.87;;;;;;;13.32;100.00;96664.66;4990791;28;105165;-59
2023/05/25 05:26:10;;;;;;;21.93;18.77;;;;;;;13.32;100.00;96670.00;4987363;28;105011;-60
2023/05/25 05:28:37;;;;;;;22.43;18.07;;;;;;;13.34;100.00;96662.53;4987486;28;103974;-59
2023/05/25 05:31:05;;;;;;;22.20;18.37;;;;;;;13.33;100.00;96659.06;4987749;28;101782;-60
2023/05/25 05:33:36;;;;;;;21.60;17.57;;;;;;;13.48;100.00;96663.66;4987888;28;103869;-59
2023/05/25 05:36:07;;;;;;;21.10;17.30;;;;;;;13.47;100.00;96668.19;4987286;28;105423;-59
2023/05/25 05:38:35;;;;;;;20.30;16.83;;;;;;;13.54;100.00;96665.28;4987541;28;102196;-59
2023/05/25 05:41:06;;;;;;;20.37;16.43;;;;;;;13.66;100.00;96669.34;4987977;28;105312;-59
2023/05/25 05:43:41;;;;;;;22.90;17.67;;;;;;;13.69;100.00;96660.78;4987246;28;105159;-59
2023/05/25 05:46:09;;;;;;;21.37;16.83;;;;;;;13.61;100.00;96653.28;5002666;28;102165;-60
2023/05/25 05:48:36;;;;;;;19.97;17.73;;;;;;;13.71;100.00;96652.50;4987148;28;105562;-59
2023/05/25 05:51:06;;;;;;;17.30;15.50;;;;;;;13.79;100.00;96652.78;5001995;28;101915;-59
2023/05/25 05:53:48;;;;;;;18.70;16.10;;;;;;;13.92;100.00;96662.19;5003539;28;105142;-59
2023/05/25 05:56:19;;;;;;;17.60;15.80;;;;;;;13.95;100.00;96661.69;4987152;28;106047;-59
2023/05/25 05:58:50;;;;;;;17.13;15.27;;;;;;;13.97;100.00;96659.53;5004773;28;101914;-60
2023/05/25 06:01:17;;;;;;;17.17;15.23;;;;;;;14.00;100.00;96667.81;5007580;28;103531;-60
2023/05/25 06:04:00;;;;;;;17.83;15.40;;;;;;;14.06;100.00;96660.63;5009262;28;105027;-60
2023/05/25 06:06:29;;;;;;;17.90;15.10;;;;;;;14.11;100.00;96655.28;4990989;28;102309;-59
2023/05/25 06:08:56;;;;;;;14.77;13.27;;;;;;;14.17;100.00;96667.59;5011707;28;104837;-60
2023/05/25 06:11:23;;;;;;;15.27;13.77;;;;;;;14.30;100.00;96665.22;5010895;28;101944;-60
2023/05/25 06:13:51;;;;;;;16.23;13.07;;;;;;;14.35;100.00;96664.41;5007930;28;105646;-59
2023/05/25 06:16:18;;;;;;;15.23;13.27;;;;;;;14.47;100.00;96664.94;5007917;28;105237;-59
2023/05/25 06:18:46;;;;;;;13.93;12.30;;;;;;;14.56;100.00;96666.03;5010168;28;102450;-60
2023/05/25 06:21:14;;;;;;;13.50;11.90;;;;;;;14.26;100.00;96666.81;5010561;28;106229;-60
2023/05/25 06:23:47;;;;;;;12.87;11.50;;;;;;;14.45;100.00;96675.13;5011111;28;102573;-60
2023/05/25 06:26:14;;;;;;;13.83;11.70;;;;;;;14.26;100.00;96671.34;5011659;28;101765;-60
2023/05/25 06:28:41;;;;;;;14.07;12.10;;;;;;;14.36;100.00;96671.38;5010844;28;104856;-60
2023/05/25 06:31:09;;;;;;;13.27;11.67;;;;;;;14.33;100.00;96672.72;5008186;28;105344;-60
2023/05/25 06:34:20;;;;;;;13.60;11.83;;;;;;;14.26;100.00;96677.53;4995326;28;105040;-59
2023/05/25 06:36:47;;;;;;;12.33;11.13;;;;;;;14.37;100.00;96679.13;5011056;28;102895;-60
2023/05/25 06:39:16;;;;;;;12.63;11.33;;;;;;;14.56;100.00;96682.88;5009720;28;102130;-60
2023/05/25 06:41:44;;;;;;;12.37;11.07;;;;;;;14.62;100.00;96681.84;5010079;28;104999;-59
2023/05/25 06:44:19;;;;;;;13.27;11.37;;;;;;;14.64;100.00;96681.53;5006339;28;105641;-60
2023/05/25 06:46:47;;;;;;;12.30;11.10;;;;;;;14.72;100.00;96683.69;4993868;28;101979;-59
2023/05/25 06:49:15;;;;;;;13.20;11.37;;;;;;;14.76;100.00;96692.78;4998812;28;104911;-59
2023/05/25 06:51:42;;;;;;;12.47;11.27;;;;;;;14.82;100.00;96689.03;5004114;28;105874;-60
2023/05/25 06:54:13;;;;;;;12.57;11.27;;;;;;;14.76;100.00;96698.13;5000973;28;102030;-60
2023/05/25 06:56:42;;;;;;;13.33;12.03;;;;;;;14.73;100.00;96693.31;5006966;28;106013;-60
2023/05/25 06:59:08;;;;;;;13.30;11.57;;;;;;;14.84;100.00;96700.28;5009634;28;101891;-60
2023/05/25 07:01:36;;;;;;;12.50;11.20;;;;;;;15.03;100.00;96699.44;5009578;28;104542;-60
2023/05/25 07:04:05;;;;;;;12.27;10.97;;;;;;;15.27;100.00;96707.72;5005927;28;105120;-60
2023/05/25 07:06:32;;;;;;;13.57;11.13;;;;;;;15.31;100.00;96700.75;4999263;28;101745;-61
2023/05/25 07:08:58;;;;;;;12.00;10.80;;;;;;;15.41;100.00;96695.34;5043328;27;105042;-60
2023/05/25 07:11:26;;;;;;;11.83;10.63;;;;;;;15.63;100.00;96695.81;5005274;28;105360;-61
2023/05/25 07:13:59;;;;;;;12.00;10.80;;;;;;;15.66;100.00;96697.97;4995509;28;101918;-61
2023/05/25 07:16:26;;;;;;;11.57;10.43;;;;;;;15.96;100.00;96697.84;5012243;28;105075;-60
2023/05/25 07:18:52;;;;;;;11.53;10.33;;;;;;;16.30;100.00;96699.47;5010586;28;101801;-60
2023/05/25 07:21:19;;;;;;;11.53;9.93;;;;;;;16.34;100.00;96699.72;5007584;28;105451;-60
2023/05/25 07:23:46;;;;;;;10.57;9.50;;;;;;;16.76;100.00;96697.28;5009670;28;105319;-60
2023/05/25 07:26:13;;;;;;;10.43;9.43;;;;;;;16.54;100.00;96699.63;5008732;28;102144;-60
2023/05/25 07:28:40;;;;;;;9.50;8.50;;;;;;;16.08;100.00;96696.41;5010774;28;103237;-60
2023/05/25 07:31:10;;;;;;;10.63;9.63;;;;;;;16.07;100.00;96694.00;5007317;28;105252;-60
2023/05/25 07:33:37;;;;;;;9.87;8.30;;;;;;;16.05;100.00;96704.19;5005417;28;102124;-60
2023/05/25 07:36:04;;;;;;;9.20;8.30;;;;;;;16.28;100.00;96703.53;5012119;28;105606;-60
2023/05/25 07:38:31;;;;;;;8.90;7.50;;;;;;;16.54;100.00;96696.94;5006787;28;101878;-60
2023/05/25 07:40:58;;;;;;;8.43;7.63;;;;;;;16.26;100.00;96693.09;5006974;28;105540;-60
2023/05/25 07:43:25;;;;;;;10.13;9.20;;;;;;;16.74;100.00;96697.56;5001694;28;105681;-60
2023/05/25 07:45:52;;;;;;;8.97;8.13;;;;;;;17.09;100.00;96699.13;5011517;28;101996;-60
2023/05/25 07:48:21;;;;;;;8.80;7.77;;;;;;;16.83;100.00;96697.75;5006721;28;105451;-60
2023/05/25 07:50:48;;;;;;;9.63;8.63;;;;;;;16.92;100.00;96709.50;4989780;28;105326;-60
2023/05/25 07:53:14;;;;;;;9.43;8.53;;;;;;;16.90;100.00;96706.31;5023495;28;101906;-60
2023/05/25 07:55:41;;;;;;;10.23;9.13;;;;;;;16.77;100.00;96715.00;5001181;28;105260;-60
2023/05/25 07:58:08;;;;;;;10.37;9.33;;;;;;;16.94;100.00;96720.81;5011656;28;107343;-60
2023/05/25 08:00:35;;;;;;;9.57;8.67;;;;;;;17.09;100.00;96707.19;5007478;28;105485;-60
2023/05/25 08:03:02;;;;;;;11.17;10.07;;;;;;;17.29;100.00;96712.38;5006994;28;105777;-60
2023/05/25 08:05:30;;;;;;;10.83;9.83;;;;;;;17.37;100.00;96709.06;5007087;28;102043;-60
2023/05/25 08:07:57;;;;;;;10.87;9.77;;;;;;;17.14;100.00;96715.22;5009044;28;105056;-60
2023/05/25 08:10:30;;;;;;;10.93;9.83;;;;;;;17.24;100.00;96715.13;5008742;28;105810;-60
2023/05/25 08:12:57;;;;;;;11.40;9.93;;;;;;;17.51;100.00;96718.09;5009632;28;102141;-60
2023/05/25 08:15:39;;;;;;;10.97;9.93;;;;;;;17.51;100.00;96710.84;5008926;28;104874;-60
2023/05/25 08:18:06;;;;;;;10.70;9.70;;;;;;;17.85;100.00;96714.19;5006779;28;105827;-60
2023/05/25 08:20:35;;;;;;;10.83;9.67;;;;;;;17.94;100.00;96719.75;5013232;28;101949;-60
2023/05/25 08:23:03;;;;;;;10.37;9.37;;;;;;;17.66;100.00;96710.66;5005148;28;105170;-60
2023/05/25 08:25:30;;;;;;;10.57;9.57;;;;;;;17.70;100.00;96714.38;5008851;28;102053;-60
2023/05/25 08:27:57;;;;;;;10.60;9.60;;;;;;;17.85;100.00;96716.88;5005064;28;104834;-60
2023/05/25 08:30:24;;;;;;;11.40;10.20;;;;;;;17.88;100.00;96707.44;4997530;28;105322;-60
2023/05/25 08:32:51;;;;;;;11.40;10.13;;;;;;;17.85;100.00;96721.47;5008584;28;102333;-60
2023/05/25 08:35:26;;;;;;;11.37;9.97;;;;;;;17.39;100.00;96717.69;5008338;28;105575;-60
2023/05/25 08:37:55;;;;;;;11.93;10.57;;;;;;;18.08;100.00;96715.22;5008878;28;102846;-60
2023/05/25 08:40:26;;;;;;;11.87;10.60;;;;;;;18.36;100.00;96722.44;5007939;28;101924;-60
2023/05/25 08:42:53;;;;;;;10.53;9.53;;;;;;;18.59;100.00;96721.56;5010879;28;105115;-60
2023/05/25 08:45:28;;;;;;;10.73;9.70;;;;;;;18.48;100.00;96725.50;5010164;28;102232;-60
2023/05/25 08:47:59;;;;;;;10.27;9.27;;;;;;;18.27;100.00;96730.34;5007784;28;105180;-59
2023/05/25 08:50:27;;;;;;;9.17;8.33;;;;;;;17.62;100.00;96727.66;5008708;28;105897;-60
2023/05/25 08:53:00;;;;;;;9.27;8.37;;;;;;;17.87;100.00;96730.84;5008581;28;101950;-60
2023/05/25 08:55:39;;;;;;;9.07;8.17;;;;;;;18.14;100.00;96744.50;5008633;28;103743;-60
2023/05/25 08:58:14;;;;;;;9.37;8.37;;;;;;;18.31;100.00;96747.50;5008644;28;103113;-60
2023/05/25 09:00:48;;;;;;;9.57;8.67;;;;;;;18.35;100.00;96739.66;5005314;28;102343;-59
2023/05/25 09:03:17;;;;;;;9.17;8.20;;;;;;;18.63;100.00;96739.53;4997852;28;105598;-60
2023/05/25 09:05:45;;;;;;;9.43;8.23;;;;;;;18.48;100.00;96738.97;5010193;28;104259;-60
2023/05/25 09:08:14;;;;;;;9.53;8.63;;;;;;;18.66;100.00;96732.75;5005302;28;105208;-60
2023/05/25 09:10:42;;;;;;;9.30;8.40;;;;;;;18.97;100.00;96731.97;5001016;28;106434;-60
2023/05/25 09:13:09;;;;;;;8.27;7.47;;;;;;;19.25;100.00;96738.28;5022935;27;102251;-60
2023/05/25 09:15:36;;;;;;;9.00;8.10;;;;;;;19.58;100.00;96735.25;5004476;28;102594;-60
2023/05/25 09:18:03;;;;;;;9.00;8.20;;;;;;;19.54;100.00;96738.81;5009276;28;102607;-60
2023/05/25 09:20:31;;;;;;;9.43;8.53;;;;;;;19.43;100.00;96746.31;5008634;28;102232;-60
2023/05/25 09:22:59;;;;;;;8.17;7.47;;;;;;;19.69;100.00;96746.63;5007995;28;105491;-60
2023/05/25 09:25:30;;;;;;;7.97;7.27;;;;;;;19.55;100.00;96740.41;5009135;28;102522;-59
2023/05/25 09:27:58;;;;;;;8.27;7.47;;;;;;;19.42;100.00;96747.41;5043609;27;101972;-59
2023/05/25 09:30:26;;;;;;;8.80;8.00;;;;;;;19.84;100.00;96740.94;5009218;28;103481;-60
2023/05/25 09:32:54;;;;;;;9.13;7.43;;;;;;;19.88;100.00;96752.72;5007970;28;101914;-60
2023/05/25 09:35:33;;;;;;;9.03;8.23;;;;;;;19.76;100.00;96757.81;5008366;28;105663;-60
2023/05/25 09:38:00;;;;;;;9.83;8.00;;;;;;;19.85;100.00;96756.84;5007042;28;105026;-60
2023/05/25 09:40:28;;;;;;;8.40;7.60;;;;;;;19.80;100.00;96756.13;5006277;28;102119;-61
2023/05/25 09:42:58;;;;;;;8.60;7.80;;;;;;;19.75;100.00;96756.22;5008140;28;105296;-60
2023/05/25 09:45:27;;;;;;;9.20;8.33;;;;;;;19.79;100.00;96757.25;5008904;28;102737;-60
2023/05/25 09:47:54;;;;;;;8.77;7.90;;;;;;;19.95;100.00;96761.25;5011904;28;102173;-60
2023/05/25 09:50:21;;;;;;;8.97;8.17;;;;;;;19.68;100.00;96758.53;5007215;28;105354;-60
2023/05/25 09:52:48;;;;;;;12.33;8.70;;;;;;;19.99;100.00;96762.25;5008497;28;102271;-60
2023/05/25 09:55:16;;;;;;;9.90;8.90;;;;;;;20.05;100.00;96761.03;5009733;28;102453;-60
2023/05/25 09:57:45;;;;;;;9.13;8.27;;;;;;;20.09;100.00;96759.34;5009233;28;102550;-60
2023/05/25 10:00:13;;;;;;;9.33;8.40;;;;;;;20.24;100.00;96759.03;5009229;28;102389;-60
2023/05/25 10:02:41;;;;;;;9.40;8.50;;;;;;;20.21;100.00;96765.06;5009890;28;102331;-60
2023/05/25 10:05:50;;;;;;;8.80;7.90;;;;;;;20.08;100.00;96763.16;5008681;28;102575;-60
2023/05/25 10:08:20;;;;;;;9.30;8.40;;;;;;;20.22;100.00;96766.66;5008378;28;101878;-59
2023/05/25 10:10:49;;;;;;;8.97;8.17;;;;;;;20.32;100.00;96767.22;5009450;28;105750;-60
2023/05/25 10:13:27;;;;;;;8.00;7.20;;;;;;;20.04;100.00;96770.22;5004273;28;102438;-60
2023/05/25 10:15:54;;;;;;;7.47;6.87;;;;;;;20.13;100.00;96780.06;4990364;28;105147;-60
2023/05/25 10:18:25;;;;;;;9.20;8.27;;;;;;;20.25;100.00;96774.97;5007197;28;105635;-60
2023/05/25 10:20:57;;;;;;;8.27;7.37;;;;;;;20.16;100.00;96779.44;5009561;28;101762;-60
2023/05/25 10:23:40;;;;;;;7.97;7.27;;;;;;;20.22;100.00;96782.88;5007796;28;105014;-60
2023/05/25 10:26:08;;;;;;;8.40;7.60;;;;;;;20.31;100.00;96781.03;5003475;28;105046;-59
2023/05/25 10:28:39;;;;;;;7.83;6.90;;;;;;;20.21;100.00;96781.28;4998845;28;101820;-59
2023/05/25 10:31:07;;;;;;;7.23;6.63;;;;;;;20.42;100.00;96767.03;4990516;28;104852;-60
2023/05/25 10:33:46;;;;;;;6.73;6.20;;;;;;;20.46;100.00;96772.63;5010906;28;105244;-60
2023/05/25 10:36:13;;;;;;;7.80;7.10;;;;;;;20.64;100.00;96766.25;5007526;28;105650;-60
2023/05/25 10:38:43;;;;;;;7.53;6.83;;;;;;;20.94;100.00;96771.81;5007081;28;105236;-60
2023/05/25 10:41:11;;;;;;;7.90;6.30;;;;;;;20.61;100.00;96766.88;5007151;28;102087;-60
2023/05/25 10:44:22;;;;;;;7.17;6.57;;;;;;;20.65;100.00;96767.88;5007902;28;105573;-60
2023/05/25 10:46:50;;;;;;;6.83;6.23;;;;;;;20.55;100.00;96768.09;4996699;28;105496;-60
2023/05/25 10:49:27;;;;;;;7.10;6.50;;;;;;;21.05;100.00;96769.66;5022096;28;101952;-60
2023/05/25 10:51:59;;;;;;;8.50;6.77;;;;;;;21.50;100.00;96760.41;5007034;28;102573;-60
2023/05/25 10:54:34;;;;;;;6.43;5.83;;;;;;;21.66;100.00;96769.72;5011879;28;101956;-60
2023/05/25 10:57:13;;;;;;;7.00;6.30;;;;;;;21.45;100.00;96757.81;5015784;28;101749;-60
2023/05/25 10:59:44;;;;;;;6.27;5.77;;;;;;;21.74;100.00;96750.06;5011731;28;102907;-60
2023/05/25 11:02:12;;;;;;;5.93;5.40;;;;;;;21.82;100.00;96749.28;5012002;28;103090;-60
2023/05/25 11:05:29;;;;;;;5.70;5.30;;;;;;;22.10;100.00;96747.94;5010873;28;103887;-60
2023/05/25 11:07:58;;;;;;;5.80;5.30;;;;;;;22.23;100.00;96753.22;5010133;28;103934;-60
2023/05/25 11:10:58;;;;;;;7.07;6.13;;;;;;;21.43;100.00;96749.22;5010605;28;102103;-60
2023/05/25 11:13:48;;;;;;;6.67;6.07;;;;;;;21.30;100.00;96744.69;4953703;28;104905;-60
2023/05/25 11:16:23;;;;;;;7.17;6.47;;;;;;;21.15;100.00;96750.50;4969091;28;102790;-60
2023/05/25 11:18:54;;;;;;;6.90;6.20;;;;;;;21.26;100.00;96744.50;4969956;28;101903;-60
2023/05/25 11:21:42;;;;;;;7.20;6.50;;;;;;;21.90;100.00;96753.94;4956130;28;105176;-60
2023/05/25 11:24:14;;;;;;;7.03;6.33;;;;;;;22.01;100.00;96749.84;4970083;28;101792;-60
2023/05/25 11:26:59;;;;;;;7.80;7.00;;;;;;;21.62;100.00;96757.91;4969582;28;102843;-60